Time,TemperatureF,DewpointF,PressureIn,WindDirection,WindDirectionDegrees,WindSpeedMPH,WindSpeedGustMPH,Humidity,HourlyPrecipIn,Conditions,Clouds,dailyrainin,SolarRadiationWatts/m^2,SoftwareType,DateUTC
2017-06-23 00:04:00,70.2,68.3,29.80,South,189,8.0,10.0,94,0.00,,,0.00,0,HR-IXPWINDi_r2_v1.2.,2017-06-23 04:04:00,
2017-06-23 00:09:00,70.1,68.2,29.80,SSW,194,6.0,10.0,94,0.00,,,0.00,0,HR-IXPWINDi_r2_v1.2.,2017-06-23 04:09:00,
2017-06-23 00:15:00,70.1,68.5,29.80,SSW,198,5.0,9.0,95,0.00,,,0.00,0,HR-IXPWINDi_r2_v1.2.,2017-06-23 04:15:00,
2017-06-23 00:20:00,70.1,68.5,29.79,SSW,195,8.0,8.0,95,0.00,,,0.00,0,HR-IXPWINDi_r2_v1.2.,2017-06-23 04:20:00,
2017-06-23 00:25:00,70.1,68.5,29.79,SSW,196,0.0,8.0,95,0.00,,,0.00,0,HR-IXPWINDi_r2_v1.2.,2017-06-23 04:25:00,
2017-06-23 00:30:00,70.1,68.5,29.79,South,187,5.0,8.0,95,0.00,,,0.00,0,HR-IXPWINDi_r2_v1.2.,2017-06-23 04:30:00,
2017-06-23 00:35:00,70.0,68.4,29.79,SSW,194,9.0,9.0,95,0.00,,,0.00,0,HR-IXPWINDi_r2_v1.2.,2017-06-23 04:35:00,
2017-06-23 00:40:00,70.0,68.4,29.79,SSW,200,4.0,12.0,95,0.00,,,0.00,0,HR-IXPWINDi_r2_v1.2.,2017-06-23 04:40:00,
2017-06-23 00:45:00,70.0,68.4,29.79,SSW,195,6.0,12.0,95,0.00,,,0.00,0,HR-IXPWINDi_r2_v1.2.,2017-06-23 04:45:00,
2017-06-23 00:50:00,69.9,68.3,29.78,SSW,192,4.0,7.0,95,0.00,,,0.00,0,HR-IXPWINDi_r2_v1.2.,2017-06-23 04:50:00,
2017-06-23 00:55:00,69.9,68.3,29.78,SSW,202,3.0,11.0,95,0.00,,,0.00,0,HR-IXPWINDi_r2_v1.2.,2017-06-23 04:55:00,
2017-06-23 01:00:00,69.8,68.2,29.78,SSW,194,6.0,11.0,95,0.00,,,0.00,0,HR-IXPWINDi_r2_v1.2.,2017-06-23 05:00:00,
2017-06-23 01:05:00,69.8,68.2,29.78,SSW,197,0.0,10.0,95,0.00,,,0.00,0,HR-IXPWINDi_r2_v1.2.,2017-06-23 05:05:00,
2017-06-23 01:10:00,69.8,68.2,29.78,SSW,197,0.0,8.0,95,0.00,,,0.00,0,HR-IXPWINDi_r2_v1.2.,2017-06-23 05:10:00,
2017-06-23 01:16:00,69.6,68.0,29.77,South,188,6.0,9.0,95,0.00,,,0.00,0,HR-IXPWINDi_r2_v1.2.,2017-06-23 05:16:00,
2017-06-23 01:21:00,69.5,67.9,29.77,SSW,195,9.0,10.0,95,0.00,,,0.00,0,HR-IXPWINDi_r2_v1.2.,2017-06-23 05:21:00,
2017-06-23 01:26:00,69.4,68.1,29.77,South,184,6.0,11.0,96,0.00,,,0.00,0,HR-IXPWINDi_r2_v1.2.,2017-06-23 05:26:00,
2017-06-23 01:31:00,69.4,68.1,29.77,South,178,7.0,11.0,96,0.00,,,0.00,0,HR-IXPWINDi_r2_v1.2.,2017-06-23 05:31:00,
2017-06-23 01:36:00,69.4,68.1,29.76,SSW,193,0.0,8.0,96,0.00,,,0.00,0,HR-IXPWINDi_r2_v1.2.,2017-06-23 05:36:00,
2017-06-23 01:41:00,69.4,68.1,29.76,South,181,0.0,8.0,96,0.00,,,0.00,0,HR-IXPWINDi_r2_v1.2.,2017-06-23 05:41:00,
2017-06-23 01:46:00,69.3,68.0,29.76,South,187,0.0,8.0,96,0.00,,,0.00,0,HR-IXPWINDi_r2_v1.2.,2017-06-23 05:46:00,
2017-06-23 01:51:00,69.3,68.0,29.76,SSW,193,7.0,9.0,96,0.00,,,0.00,0,HR-IXPWINDi_r2_v1.2.,2017-06-23 05:51:00,
2017-06-23 01:56:00,69.3,68.0,29.76,SSW,195,10.0,10.0,96,0.00,,,0.00,0,HR-IXPWINDi_r2_v1.2.,2017-06-23 05:56:00,
2017-06-23 02:01:00,69.3,68.0,29.75,SSW,200,4.0,11.0,96,0.00,,,0.00,0,HR-IXPWINDi_r2_v1.2.,2017-06-23 06:01:00,
2017-06-23 02:07:00,69.2,67.9,29.75,SSW,200,5.0,11.0,96,0.00,,,0.00,0,HR-IXPWINDi_r2_v1.2.,2017-06-23 06:07:00,
2017-06-23 02:12:00,69.2,67.9,29.75,SSW,194,2.0,11.0,96,0.00,,,0.00,0,HR-IXPWINDi_r2_v1.2.,2017-06-23 06:12:00,
2017-06-23 02:17:00,69.2,67.9,29.75,SSW,197,4.0,10.0,96,0.00,,,0.00,0,HR-IXPWINDi_r2_v1.2.,2017-06-23 06:17:00,
2017-06-23 02:23:00,69.2,67.9,29.74,South,189,7.0,10.0,96,0.00,,,0.00,0,HR-IXPWINDi_r2_v1.2.,2017-06-23 06:23:00,
2017-06-23 02:28:00,69.3,68.3,29.74,SSW,200,14.0,14.0,97,0.00,,,0.00,0,HR-IXPWINDi_r2_v1.2.,2017-06-23 06:28:00,
2017-06-23 02:34:00,69.3,68.3,29.74,SSW,204,11.0,16.0,97,0.00,,,0.00,0,HR-IXPWINDi_r2_v1.2.,2017-06-23 06:34:00,
2017-06-23 02:39:00,69.4,68.1,29.74,SSW,196,8.0,16.0,96,0.00,,,0.00,0,HR-IXPWINDi_r2_v1.2.,2017-06-23 06:39:00,
2017-06-23 02:44:00,69.4,68.1,29.73,SSW,213,9.0,15.0,96,0.00,,,0.00,0,HR-IXPWINDi_r2_v1.2.,2017-06-23 06:44:00,
2017-06-23 02:49:00,69.4,68.1,29.73,SSW,205,8.0,14.0,96,0.00,,,0.00,0,HR-IXPWINDi_r2_v1.2.,2017-06-23 06:49:00,
2017-06-23 02:54:00,69.5,68.5,29.73,SSW,209,7.0,13.0,97,0.00,,,0.00,0,HR-IXPWINDi_r2_v1.2.,2017-06-23 06:54:00,
2017-06-23 02:59:00,69.6,68.6,29.72,SSW,211,7.0,11.0,97,0.00,,,0.00,0,HR-IXPWINDi_r2_v1.2.,2017-06-23 06:59:00,
2017-06-23 03:04:00,69.8,68.8,29.72,SSW,202,6.0,14.0,97,0.00,,,0.00,0,HR-IXPWINDi_r2_v1.2.,2017-06-23 07:04:00,
2017-06-23 03:09:00,69.9,68.9,29.72,SW,214,6.0,14.0,97,0.00,,,0.00,0,HR-IXPWINDi_r2_v1.2.,2017-06-23 07:09:00,
2017-06-23 03:14:00,70.0,69.0,29.72,SSW,203,7.0,14.0,97,0.00,,,0.00,0,HR-IXPWINDi_r2_v1.2.,2017-06-23 07:14:00,
2017-06-23 03:20:00,70.1,69.1,29.72,SW,216,5.0,12.0,97,0.00,,,0.00,0,HR-IXPWINDi_r2_v1.2.,2017-06-23 07:20:00,
2017-06-23 03:25:00,70.2,69.2,29.72,SSW,208,5.0,12.0,97,0.00,,,0.00,0,HR-IXPWINDi_r2_v1.2.,2017-06-23 07:25:00,
2017-06-23 03:30:00,70.3,69.3,29.72,SSW,209,6.0,12.0,97,0.00,,,0.00,0,HR-IXPWINDi_r2_v1.2.,2017-06-23 07:30:00,
2017-06-23 03:35:00,70.3,69.3,29.71,SW,215,6.0,10.0,97,0.00,,,0.00,0,HR-IXPWINDi_r2_v1.2.,2017-06-23 07:35:00,
2017-06-23 03:41:00,70.4,69.4,29.71,SW,214,7.0,8.0,97,0.00,,,0.00,0,HR-IXPWINDi_r2_v1.2.,2017-06-23 07:41:00,
2017-06-23 03:46:00,70.5,69.5,29.71,SSW,209,7.0,10.0,97,0.00,,,0.00,0,HR-IXPWINDi_r2_v1.2.,2017-06-23 07:46:00,
2017-06-23 03:52:00,70.6,69.6,29.70,SW,215,0.0,10.0,97,0.00,,,0.00,0,HR-IXPWINDi_r2_v1.2.,2017-06-23 07:52:00,
2017-06-23 03:57:00,70.7,69.7,29.70,SW,225,10.0,12.0,97,0.00,,,0.00,0,HR-IXPWINDi_r2_v1.2.,2017-06-23 07:57:00,
2017-06-23 04:02:00,70.8,69.8,29.70,SSW,213,9.0,12.0,97,0.00,,,0.00,0,HR-IXPWINDi_r2_v1.2.,2017-06-23 08:02:00,
2017-06-23 04:07:00,71.0,70.0,29.69,SW,225,8.0,11.0,97,0.00,,,0.00,0,HR-IXPWINDi_r2_v1.2.,2017-06-23 08:07:00,
2017-06-23 04:12:00,71.2,70.2,29.70,SW,225,0.0,12.0,97,0.00,,,0.00,0,HR-IXPWINDi_r2_v1.2.,2017-06-23 08:12:00,
2017-06-23 04:17:00,71.2,70.2,29.70,WSW,245,7.0,12.0,97,0.00,,,0.00,0,HR-IXPWINDi_r2_v1.2.,2017-06-23 08:17:00,
2017-06-23 04:22:00,71.4,70.4,29.70,SW,219,7.0,13.0,97,0.00,,,0.00,0,HR-IXPWINDi_r2_v1.2.,2017-06-23 08:22:00,
2017-06-23 04:27:00,71.5,70.2,29.70,SW,221,5.0,14.0,96,0.00,,,0.00,0,HR-IXPWINDi_r2_v1.2.,2017-06-23 08:27:00,
2017-06-23 04:32:00,71.7,70.4,29.70,SW,227,7.0,18.0,96,0.00,,,0.00,0,HR-IXPWINDi_r2_v1.2.,2017-06-23 08:32:00,
2017-06-23 04:38:00,71.8,70.5,29.69,SW,223,5.0,18.0,96,0.00,,,0.00,0,HR-IXPWINDi_r2_v1.2.,2017-06-23 08:38:00,
2017-06-23 04:43:00,71.9,70.6,29.69,SW,229,5.0,16.0,96,0.00,,,0.00,0,HR-IXPWINDi_r2_v1.2.,2017-06-23 08:43:00,
2017-06-23 04:48:00,71.9,70.3,29.69,WSW,244,8.0,16.0,95,0.00,,,0.00,0,HR-IXPWINDi_r2_v1.2.,2017-06-23 08:48:00,
2017-06-23 04:53:00,72.0,70.4,29.69,SW,221,4.0,12.0,95,0.00,,,0.00,0,HR-IXPWINDi_r2_v1.2.,2017-06-23 08:53:00,
2017-06-23 04:58:00,72.0,70.4,29.69,SW,229,9.0,14.0,95,0.00,,,0.00,0,HR-IXPWINDi_r2_v1.2.,2017-06-23 08:58:00,
2017-06-23 05:03:00,72.0,70.4,29.69,SW,225,0.0,14.0,95,0.00,,,0.00,0,HR-IXPWINDi_r2_v1.2.,2017-06-23 09:03:00,
2017-06-23 05:08:00,72.0,70.4,29.69,SW,227,11.0,14.0,95,0.00,,,0.00,0,HR-IXPWINDi_r2_v1.2.,2017-06-23 09:08:00,
2017-06-23 05:14:00,72.0,70.4,29.69,SW,232,9.0,14.0,95,0.00,,,0.00,0,HR-IXPWINDi_r2_v1.2.,2017-06-23 09:14:00,
2017-06-23 05:20:00,72.1,70.8,29.69,SW,230,7.0,13.0,96,0.00,,,0.00,0,HR-IXPWINDi_r2_v1.2.,2017-06-23 09:20:00,
2017-06-23 05:25:00,72.1,70.8,29.69,SW,229,4.0,13.0,96,0.00,,,0.00,0,HR-IXPWINDi_r2_v1.2.,2017-06-23 09:25:00,
2017-06-23 05:30:00,72.1,70.8,29.69,SW,233,2.0,15.0,96,0.00,,,0.00,0,HR-IXPWINDi_r2_v1.2.,2017-06-23 09:30:00,
2017-06-23 05:35:00,72.2,70.6,29.69,SW,229,10.0,15.0,95,0.00,,,0.00,0,HR-IXPWINDi_r2_v1.2.,2017-06-23 09:35:00,
2017-06-23 05:40:00,72.2,70.9,29.69,WSW,238,4.0,13.0,96,0.00,,,0.00,0,HR-IXPWINDi_r2_v1.2.,2017-06-23 09:40:00,
2017-06-23 05:45:00,72.2,70.9,29.69,SW,232,9.0,13.0,96,0.00,,,0.00,0,HR-IXPWINDi_r2_v1.2.,2017-06-23 09:45:00,
2017-06-23 05:50:00,72.3,71.0,29.69,SW,232,0.0,13.0,96,0.00,,,0.00,0,HR-IXPWINDi_r2_v1.2.,2017-06-23 09:50:00,
2017-06-23 05:55:00,72.4,70.8,29.69,WSW,247,8.0,17.0,95,0.00,,,0.00,0,HR-IXPWINDi_r2_v1.2.,2017-06-23 09:55:00,
2017-06-23 06:00:00,72.4,70.8,29.69,SW,229,3.0,17.0,95,0.00,,,0.00,0,HR-IXPWINDi_r2_v1.2.,2017-06-23 10:00:00,
2017-06-23 06:05:00,72.5,70.9,29.68,SW,219,7.0,15.0,95,0.00,,,0.00,0,HR-IXPWINDi_r2_v1.2.,2017-06-23 10:05:00,
2017-06-23 06:10:00,72.5,70.9,29.69,SW,232,4.0,15.0,95,0.00,,,0.00,0,HR-IXPWINDi_r2_v1.2.,2017-06-23 10:10:00,
2017-06-23 06:15:00,72.6,71.0,29.69,SW,225,1.0,16.0,95,0.00,,,0.00,0,HR-IXPWINDi_r2_v1.2.,2017-06-23 10:15:00,
2017-06-23 06:20:00,72.6,71.0,29.69,WSW,243,5.0,16.0,95,0.00,,,0.00,0,HR-IXPWINDi_r2_v1.2.,2017-06-23 10:20:00,
2017-06-23 06:25:00,72.7,71.1,29.69,SW,224,0.0,16.0,95,0.00,,,0.00,5,HR-IXPWINDi_r2_v1.2.,2017-06-23 10:25:00,
2017-06-23 06:30:00,72.8,71.2,29.68,SW,225,7.0,16.0,95,0.00,,,0.00,5,HR-IXPWINDi_r2_v1.2.,2017-06-23 10:30:00,
2017-06-23 06:35:00,72.8,71.2,29.68,SW,229,6.0,13.0,95,0.00,,,0.00,5,HR-IXPWINDi_r2_v1.2.,2017-06-23 10:35:00,
2017-06-23 06:40:00,72.7,71.1,29.68,SW,222,4.0,14.0,95,0.00,,,0.00,9,HR-IXPWINDi_r2_v1.2.,2017-06-23 10:40:00,
2017-06-23 06:51:00,72.8,71.2,29.68,SW,220,8.0,15.0,95,0.00,,,0.00,12,HR-IXPWINDi_r2_v1.2.,2017-06-23 10:51:00,
2017-06-23 06:56:00,72.8,71.2,29.68,WSW,241,7.0,15.0,95,0.00,,,0.00,14,HR-IXPWINDi_r2_v1.2.,2017-06-23 10:56:00,
2017-06-23 07:01:00,72.8,71.2,29.68,SW,236,7.0,15.0,95,0.00,,,0.00,9,HR-IXPWINDi_r2_v1.2.,2017-06-23 11:01:00,
2017-06-23 07:06:00,72.9,71.3,29.68,SW,224,0.0,15.0,95,0.00,,,0.00,12,HR-IXPWINDi_r2_v1.2.,2017-06-23 11:06:00,
2017-06-23 07:11:00,72.9,71.3,29.67,WSW,257,6.0,12.0,95,0.00,,,0.00,18,HR-IXPWINDi_r2_v1.2.,2017-06-23 11:11:00,
2017-06-23 07:16:00,72.9,71.3,29.67,SW,227,8.0,12.0,95,0.00,,,0.00,18,HR-IXPWINDi_r2_v1.2.,2017-06-23 11:16:00,
2017-06-23 07:21:00,72.9,71.3,29.67,SW,223,4.0,14.0,95,0.00,,,0.00,32,HR-IXPWINDi_r2_v1.2.,2017-06-23 11:21:00,
2017-06-23 07:26:00,73.0,71.4,29.67,SSW,213,7.0,14.0,95,0.00,,,0.00,30,HR-IXPWINDi_r2_v1.2.,2017-06-23 11:26:00,
2017-06-23 07:31:00,72.9,71.3,29.67,SW,219,6.0,16.0,95,0.00,,,0.00,32,HR-IXPWINDi_r2_v1.2.,2017-06-23 11:31:00,
2017-06-23 07:36:00,72.9,71.3,29.67,SW,219,7.0,16.0,95,0.00,,,0.00,32,HR-IXPWINDi_r2_v1.2.,2017-06-23 11:36:00,
2017-06-23 07:41:00,73.0,71.4,29.66,SW,218,7.0,17.0,95,0.00,,,0.00,35,HR-IXPWINDi_r2_v1.2.,2017-06-23 11:41:00,
2017-06-23 07:43:00,73.0,71.4,29.66,SW,217,8.0,17.0,95,0.00,,,0.00,47,HR-IXPWINDi_r2_v1.2.,2017-06-23 11:43:00,
2017-06-23 07:48:00,73.0,71.4,29.67,SW,229,3.0,17.0,95,0.00,,,0.00,23,HR-IXPWINDi_r2_v1.2.,2017-06-23 11:48:00,
2017-06-23 07:53:00,73.0,71.4,29.67,SSW,204,5.0,12.0,95,0.00,,,0.00,33,HR-IXPWINDi_r2_v1.2.,2017-06-23 11:53:00,
2017-06-23 07:59:00,73.0,71.4,29.67,SW,223,9.0,14.0,95,0.00,,,0.00,44,HR-IXPWINDi_r2_v1.2.,2017-06-23 11:59:00,
2017-06-23 08:04:00,73.0,71.7,29.67,SW,223,7.0,14.0,96,0.00,,,0.00,65,HR-IXPWINDi_r2_v1.2.,2017-06-23 12:04:00,
2017-06-23 08:09:00,73.1,71.5,29.67,SW,223,7.0,11.0,95,0.00,,,0.00,60,HR-IXPWINDi_r2_v1.2.,2017-06-23 12:09:00,
2017-06-23 08:14:00,73.2,71.6,29.67,SW,234,5.0,13.0,95,0.00,,,0.00,47,HR-IXPWINDi_r2_v1.2.,2017-06-23 12:14:00,
2017-06-23 08:19:00,73.2,71.6,29.67,SW,223,1.0,13.0,95,0.00,,,0.00,26,HR-IXPWINDi_r2_v1.2.,2017-06-23 12:19:00,